Time;durP1;ratioP1;P1;durP2;ratioP2;P2;SDS_P1;SDS_P2;PMS_P1;PMS_P2;Temp;Humidity;BMP_temperature;BMP_pressure;BME280_temperature;BME280_humidity;BME280_pressure;Samples;Min_cycle;Max_cycle;Signal;HPM_P1;HPM_P2
2022/10/24 00:01:40;;;;;;;0.73;0.50;;;19.10;58.30;;;;;;20806517;28;20041;-86
2022/10/24 00:11:41;;;;;;;0.45;0.43;;;19.10;58.40;;;;;;20757724;28;20443;-87
2022/10/24 00:21:41;;;;;;;0.95;0.47;;;19.10;58.50;;;;;;20785119;28;20045;-89
2022/10/24 00:31:43;;;;;;;0.55;0.40;;;19.00;58.50;;;;;;20782218;28;20046;-88
2022/10/24 00:41:46;;;;;;;0.90;0.73;;;19.10;58.60;;;;;;20797965;28;20103;-88
2022/10/24 00:51:47;;;;;;;0.30;0.30;;;19.10;58.60;;;;;;20790221;28;20045;-89
2022/10/24 01:01:49;;;;;;;1.00;0.60;;;19.00;58.60;;;;;;20768322;28;20045;-87
2022/10/24 01:12:15;;;;;;;0.50;0.40;;;19.00;58.70;;;;;;20796108;28;20083;-88
2022/10/24 01:22:28;;;;;;;0.98;0.50;;;19.00;58.70;;;;;;20806759;28;20040;-88
2022/10/24 01:32:34;;;;;;;1.92;0.30;;;19.00;58.80;;;;;;20776190;28;20485;-87
2022/10/24 01:42:35;;;;;;;0.75;0.40;;;19.00;58.80;;;;;;20788612;28;20029;-87
2022/10/24 01:52:38;;;;;;;0.73;0.40;;;19.00;58.90;;;;;;20800536;28;20132;-87
2022/10/24 02:02:41;;;;;;;3.03;0.28;;;19.00;58.90;;;;;;21138412;23;20052;-86
2022/10/24 02:12:45;;;;;;;0.68;0.30;;;18.90;58.90;;;;;;20784052;28;20041;-87
2022/10/24 02:22:55;;;;;;;0.40;0.30;;;18.90;58.90;;;;;;20749806;28;20076;-87
2022/10/24 02:32:57;;;;;;;1.73;0.38;;;18.90;59.00;;;;;;20765965;28;20088;-89
2022/10/24 02:42:58;;;;;;;0.20;0.20;;;18.90;59.10;;;;;;20771183;28;20092;-87
2022/10/24 02:53:00;;;;;;;1.55;0.30;;;18.90;59.10;;;;;;20750466;28;20037;-88
2022/10/24 03:03:00;;;;;;;1.38;1.27;;;18.90;59.20;;;;;;20782555;28;20088;-88
2022/10/24 03:13:02;;;;;;;0.30;0.30;;;18.90;59.20;;;;;;20820148;28;20464;-87
2022/10/24 03:23:03;;;;;;;0.65;0.50;;;18.90;59.20;;;;;;20804040;28;20039;-87
2022/10/24 03:33:04;;;;;;;0.50;0.40;;;18.90;59.30;;;;;;20775796;28;20060;-87
2022/10/24 03:43:05;;;;;;;0.57;0.40;;;18.90;59.40;;;;;;20809142;28;20280;-86
2022/10/24 03:53:05;;;;;;;1.92;0.50;;;18.80;59.30;;;;;;20801012;28;20427;-87
2022/10/24 04:03:06;;;;;;;0.90;0.50;;;18.80;59.30;;;;;;20807594;28;20087;-87
2022/10/24 04:13:09;;;;;;;0.85;0.40;;;18.80;59.40;;;;;;20799901;28;20050;-87
2022/10/24 04:23:09;;;;;;;0.38;0.35;;;18.80;59.40;;;;;;20807885;28;20368;-86
2022/10/24 04:33:10;;;;;;;1.47;0.43;;;18.80;59.40;;;;;;20783664;28;20038;-87
2022/10/24 04:43:10;;;;;;;1.77;0.70;;;18.90;59.50;;;;;;20778466;28;20288;-88
2022/10/24 04:53:12;;;;;;;0.52;0.43;;;18.80;59.50;;;;;;20789846;28;20030;-88
2022/10/24 05:03:13;;;;;;;0.25;0.25;;;18.70;59.40;;;;;;20792734;28;20060;-87
2022/10/24 05:13:13;;;;;;;0.95;0.60;;;18.70;59.50;;;;;;20771716;28;20037;-87
2022/10/24 05:23:14;;;;;;;1.95;0.40;;;18.70;59.50;;;;;;20769094;28;20043;-87
2022/10/24 05:33:16;;;;;;;0.47;0.30;;;18.70;59.50;;;;;;20778343;28;20555;-87
2022/10/24 05:43:18;;;;;;;0.40;0.30;;;18.70;59.60;;;;;;20774230;28;20053;-87
2022/10/24 05:53:18;;;;;;;0.28;0.28;;;18.80;60.30;;;;;;20783882;28;20050;-87
2022/10/24 06:03:21;;;;;;;0.75;0.55;;;18.70;59.70;;;;;;20771064;28;20476;-88
2022/10/24 06:13:22;;;;;;;0.50;0.30;;;18.70;59.70;;;;;;20764790;28;20040;-88
2022/10/24 06:23:23;;;;;;;1.30;0.38;;;18.60;59.70;;;;;;20796710;28;20038;-89
2022/10/24 06:33:23;;;;;;;1.30;0.57;;;18.60;59.70;;;;;;20780919;28;20120;-89
2022/10/24 06:43:27;;;;;;;0.75;0.40;;;18.60;59.80;;;;;;20785492;28;20065;-89
2022/10/24 06:53:31;;;;;;;0.63;0.40;;;18.60;59.70;;;;;;20773686;28;20040;-89
2022/10/24 07:03:35;;;;;;;1.77;0.43;;;18.60;59.70;;;;;;20760610;28;20229;-89
2022/10/24 07:13:35;;;;;;;0.88;0.30;;;18.60;59.80;;;;;;20780549;28;20064;-86
2022/10/24 07:23:36;;;;;;;0.45;0.40;;;18.60;59.90;;;;;;20762845;28;20034;-87
2022/10/24 07:33:38;;;;;;;0.32;0.30;;;18.60;59.90;;;;;;20747696;28;20030;-88
2022/10/24 07:43:38;;;;;;;0.45;0.30;;;18.60;59.90;;;;;;20779728;28;20061;-87
2022/10/24 07:53:39;;;;;;;0.63;0.50;;;18.60;59.90;;;;;;20825026;28;20392;-87
2022/10/24 08:03:40;;;;;;;1.05;0.60;;;18.60;59.90;;;;;;20801317;28;20300;-88
2022/10/24 08:13:48;;;;;;;0.50;0.47;;;18.60;59.90;;;;;;20823294;28;20056;-88
2022/10/24 08:23:50;;;;;;;0.75;0.30;;;18.60;59.90;;;;;;20798684;28;20033;-87
2022/10/24 08:33:53;;;;;;;0.40;0.40;;;18.60;59.80;;;;;;20793357;28;20050;-87
2022/10/24 08:43:55;;;;;;;0.75;0.43;;;18.60;59.80;;;;;;20792901;28;20030;-87
2022/10/24 08:53:57;;;;;;;1.02;0.50;;;18.60;59.80;;;;;;20775472;28;20124;-88
2022/10/24 09:04:00;;;;;;;1.73;0.60;;;18.50;59.70;;;;;;20797576;28;20057;-87
2022/10/24 09:14:24;;;;;;;1.20;0.47;;;18.60;59.70;;;;;;20795462;28;20179;-86
2022/10/24 09:25:02;;;;;;;0.50;0.40;;;18.60;59.60;;;;;;20803403;28;20045;-87
2022/10/24 09:35:05;;;;;;;0.30;0.30;;;18.60;59.50;;;;;;20797451;28;20033;-87
2022/10/24 09:45:28;;;;;;;0.50;0.30;;;18.70;59.40;;;;;;20793300;28;20033;-88
2022/10/24 09:55:37;;;;;;;0.75;0.35;;;18.80;59.20;;;;;;20756701;28;20046;-85
2022/10/24 10:05:51;;;;;;;0.90;0.40;;;18.90;59.10;;;;;;20780102;28;20052;-87
2022/10/24 10:16:03;;;;;;;0.75;0.47;;;19.00;58.80;;;;;;20807233;28;20187;-89
2022/10/24 10:26:23;;;;;;;0.25;0.20;;;19.00;58.40;;;;;;20798160;28;20079;-87
2022/10/24 10:36:39;;;;;;;1.77;0.30;;;19.10;58.20;;;;;;20765520;28;20038;-88
2022/10/24 10:46:46;;;;;;;0.30;0.22;;;19.20;58.00;;;;;;20798868;28;20037;-87
2022/10/24 10:56:53;;;;;;;0.55;0.35;;;19.30;57.70;;;;;;20761408;28;20038;-90
2022/10/24 11:07:19;;;;;;;0.55;0.40;;;19.40;57.50;;;;;;20787947;28;20041;-87
2022/10/24 11:17:34;;;;;;;1.15;0.40;;;19.50;57.30;;;;;;20803347;28;20037;-87
2022/10/24 11:27:41;;;;;;;1.15;0.22;;;19.60;57.10;;;;;;20791333;28;20040;-87
2022/10/24 11:37:43;;;;;;;0.65;0.50;;;19.70;56.90;;;;;;20816315;28;20037;-87
2022/10/24 11:48:03;;;;;;;1.42;0.85;;;19.80;56.70;;;;;;20810300;28;20045;-86
2022/10/24 11:58:07;;;;;;;0.65;0.40;;;19.90;56.50;;;;;;20798844;28;20045;-85
2022/10/24 12:08:31;;;;;;;0.80;0.68;;;20.00;56.40;;;;;;20783584;28;20033;-89
2022/10/24 12:18:36;;;;;;;2.45;0.40;;;20.10;56.10;;;;;;20818150;28;20156;-88
2022/10/24 12:28:37;;;;;;;;;;;20.20;56.00;;;;;;20808266;28;20040;-87
2022/10/24 12:38:41;;;;;;;0.47;0.40;;;20.20;55.80;;;;;;20809559;28;19913;-87
2022/10/24 12:49:09;;;;;;;1.48;0.50;;;20.30;55.70;;;;;;20807099;28;20036;-86
2022/10/24 12:59:24;;;;;;;1.17;0.60;;;20.40;55.50;;;;;;20807920;28;20041;-87
2022/10/24 13:09:32;;;;;;;0.73;0.40;;;20.50;55.30;;;;;;20759187;28;20464;-85
2022/10/24 13:19:33;;;;;;;1.33;0.50;;;20.50;55.30;;;;;;20807467;28;20164;-83
2022/10/24 13:29:33;;;;;;;1.48;0.50;;;20.60;55.20;;;;;;20806945;28;20030;-85
2022/10/24 13:39:43;;;;;;;1.98;1.35;;;20.60;55.10;;;;;;20819422;28;20432;-86
2022/10/24 13:50:41;;;;;;;1.52;0.55;;;20.70;55.10;;;;;;20762189;28;20037;-86
2022/10/24 14:00:49;;;;;;;0.90;0.50;;;20.70;55.00;;;;;;20788458;28;20057;-88
2022/10/24 14:10:53;;;;;;;2.17;0.73;;;20.70;54.80;;;;;;20800447;28;20048;-87
2022/10/24 14:20:56;;;;;;;1.88;0.50;;;20.80;54.90;;;;;;20784190;28;20037;-87
2022/10/24 14:31:00;;;;;;;2.40;0.60;;;20.80;54.90;;;;;;20760539;28;20401;-86
2022/10/24 14:41:01;;;;;;;3.95;0.60;;;20.80;55.00;;;;;;20792678;28;20096;-86
2022/10/24 14:51:10;;;;;;;2.25;1.02;;;20.70;55.00;;;;;;20782945;28;20076;-87
2022/10/24 15:01:17;;;;;;;1.27;0.63;;;20.70;55.00;;;;;;20782348;28;20053;-86
2022/10/24 15:11:24;;;;;;;1.05;0.57;;;20.70;55.00;;;;;;20798855;28;20094;-85
2022/10/24 15:21:26;;;;;;;1.10;0.40;;;20.70;55.00;;;;;;20795658;28;20054;-86
2022/10/24 15:31:28;;;;;;;2.97;0.65;;;20.70;55.00;;;;;;20767969;28;20093;-87
2022/10/24 15:41:28;;;;;;;1.65;0.73;;;20.70;55.10;;;;;;20774242;28;20034;-86
2022/10/24 15:51:29;;;;;;;0.60;0.43;;;20.70;55.10;;;;;;20785253;28;20045;-87
2022/10/24 16:01:32;;;;;;;1.75;0.50;;;20.70;55.10;;;;;;20776568;28;20075;-86
2022/10/24 16:11:33;;;;;;;0.80;0.40;;;20.70;55.10;;;;;;20785650;28;20033;-88
2022/10/24 16:21:37;;;;;;;1.77;0.63;;;20.70;55.10;;;;;;20800234;28;20124;-88
2022/10/24 16:31:38;;;;;;;1.35;0.50;;;20.60;55.10;;;;;;20794417;28;20038;-88
2022/10/24 16:41:44;;;;;;;0.70;0.52;;;20.60;55.10;;;;;;20810149;28;20045;-87
2022/10/24 16:51:48;;;;;;;0.95;0.50;;;20.60;55.20;;;;;;20819196;28;20033;-88
2022/10/24 17:01:49;;;;;;;1.40;0.50;;;20.60;55.20;;;;;;20807532;28;20044;-89
2022/10/24 17:11:49;;;;;;;0.80;0.30;;;20.60;55.30;;;;;;20792248;28;20659;-88
2022/10/24 17:21:50;;;;;;;1.10;0.43;;;20.60;55.30;;;;;;20803595;28;20038;-88
2022/10/24 17:31:52;;;;;;;0.25;0.25;;;20.60;55.30;;;;;;20753580;28;20038;-89
2022/10/24 17:41:54;;;;;;;1.40;0.40;;;20.50;55.30;;;;;;20777800;28;20108;-88
2022/10/24 17:51:58;;;;;;;2.45;0.52;;;20.60;55.40;;;;;;20672118;28;20092;-88
2022/10/24 18:01:59;;;;;;;0.98;0.50;;;20.50;55.30;;;;;;20704389;28;20103;-87
2022/10/24 18:12:01;;;;;;;1.42;0.90;;;20.60;55.40;;;;;;20710434;28;20110;-88
2022/10/24 18:22:02;;;;;;;3.03;0.70;;;20.50;55.40;;;;;;20720872;28;20029;-88
2022/10/24 18:32:04;;;;;;;1.48;0.65;;;20.50;55.40;;;;;;20699690;28;20042;-88
2022/10/24 18:42:18;;;;;;;0.98;0.63;;;20.40;55.40;;;;;;20728380;28;20396;-88
2022/10/24 18:52:55;;;;;;;3.88;0.90;;;20.40;55.40;;;;;;20706525;28;20048;-87
2022/10/24 19:03:23;;;;;;;1.65;0.47;;;20.40;55.50;;;;;;20706572;28;20153;-88
2022/10/24 19:13:25;;;;;;;2.10;1.27;;;20.40;55.50;;;;;;20681545;28;20100;-88
2022/10/24 19:23:27;;;;;;;2.50;0.75;;;20.40;55.60;;;;;;20705373;28;20464;-88
2022/10/24 19:33:29;;;;;;;1.10;0.63;;;20.40;55.60;;;;;;20717374;28;20042;-88
2022/10/24 19:43:30;;;;;;;1.52;0.60;;;20.40;55.60;;;;;;20717581;28;20022;-88
2022/10/24 19:53:33;;;;;;;1.65;0.47;;;20.40;55.60;;;;;;20700105;28;20042;-88
2022/10/24 20:03:37;;;;;;;1.30;0.60;;;20.30;55.60;;;;;;20696072;28;20037;-89
2022/10/24 20:13:38;;;;;;;1.25;0.90;;;20.40;55.70;;;;;;20696576;28;20046;-89
2022/10/24 20:23:40;;;;;;;1.05;0.60;;;20.30;55.70;;;;;;20693604;28;20030;-87
2022/10/24 20:33:41;;;;;;;1.95;0.57;;;20.30;55.70;;;;;;20720265;28;20034;-89
2022/10/24 20:43:43;;;;;;;1.75;0.70;;;20.30;55.80;;;;;;20679658;28;20033;-88
2022/10/24 20:53:44;;;;;;;0.98;0.45;;;20.30;55.80;;;;;;20698566;28;20555;-88
2022/10/24 21:03:46;;;;;;;1.33;0.60;;;20.30;55.90;;;;;;20699587;28;20073;-89
2022/10/24 21:13:46;;;;;;;0.73;0.40;;;20.30;55.90;;;;;;20716414;28;20100;-89
2022/10/24 21:23:52;;;;;;;1.00;0.68;;;20.30;56.00;;;;;;20713200;28;20025;-88
2022/10/24 21:33:52;;;;;;;0.83;0.50;;;20.30;56.00;;;;;;20714150;28;20042;-89
2022/10/24 21:43:53;;;;;;;1.10;0.60;;;20.20;56.00;;;;;;20696512;28;20037;-88
2022/10/24 21:53:59;;;;;;;1.07;0.60;;;20.20;56.00;;;;;;20712067;28;20365;-88
2022/10/24 22:04:00;;;;;;;;;;;20.20;56.00;;;;;;20696098;28;20297;-87
2022/10/24 22:14:02;;;;;;;1.10;0.60;;;20.20;56.10;;;;;;20710216;28;19940;-88
2022/10/24 22:24:11;;;;;;;2.60;0.63;;;20.20;56.10;;;;;;20700144;28;20083;-88
2022/10/24 22:34:17;;;;;;;1.48;0.63;;;20.20;56.20;;;;;;20721954;28;20056;-89
2022/10/24 22:44:19;;;;;;;;;;;20.10;56.20;;;;;;20695693;28;20058;-88
2022/10/24 22:54:22;;;;;;;1.67;0.70;;;20.10;56.20;;;;;;20715471;28;20437;-88
2022/10/24 23:04:34;;;;;;;1.52;0.70;;;20.10;56.30;;;;;;20659165;28;20034;-89
2022/10/24 23:14:36;;;;;;;0.77;0.47;;;20.10;56.30;;;;;;20721664;28;20046;-88
2022/10/24 23:24:39;;;;;;;1.00;0.45;;;20.10;56.40;;;;;;20682308;28;20625;-89
2022/10/24 23:34:40;;;;;;;1.10;0.60;;;20.10;56.60;;;;;;20699396;28;20529;-88
2022/10/24 23:44:41;;;;;;;1.27;0.52;;;20.00;56.50;;;;;;20691237;28;20049;-87
2022/10/24 23:54:42;;;;;;;0.90;0.50;;;20.00;56.50;;;;;;20695731;28;20065;-90
